Accueil
METAR-TAF:

METAR-TAF

Aéroports :

Gioia del Colle, Italie

latitude: 40-46N, longitude: 016-56E, altitude: 345 m

Observation

Le bulletin a été fait il y a 48 minutes, à 21:55 UTC
Vent 4 kt de nord/nord-ouest
Température 11°C
Humidité 100%
Pression 1003 hPa
Visibilité: 2800 m
Nuages épars à une hauteur de 200 ft
Nuages épars à une hauteur de 600 ft
brume

METAR: LIBV 032155Z 34004KT 2800 BR SCT002 SCT006 11/11 Q1003 RMK OVC VIS MIN 2800 WIND THR32 01005KT WIND THR14 /////KT YLO

Heure: 23:43 (22:43 UTC)

Prévision

Le bulletin a été fait il y a 2 heures et 43 minutes, à 20:00 UTC
Prévision valable du 03 à 21 UTC au 04 à 06 UTC
Vent 15 kt de sud
Visibilité: 4000 m
Nuages épars à une hauteur de 300 ft
pluie, brume
Temporairement
du 03 à 23 UTC au 04 à 03 UTC
Visibilité: 0500 m
Ciel couvert à une hauteur de 300 ft
brouillard

TAF: LIBV 032000Z 0321/0406 18015KT 4000 RA BR SCT003 TEMPO 0323/0403 0500 FG OVC003

Observations et prévisions météorologiques de plus de 4000 aéroports (messages METAR et TAF).

Les stations disponibles sont représentées par des disques jaunes et rouges sur la carte.

Passer la souris dessus pour voir le nom de la station.

Cliquer dessus pour voir les observations et prévisions météorologiques.

Pour changer de carte: cliquez sur les boutons verts avec une croix noire pour zoomer, sur le bouton vert avec un tiret pour effectuer un zoom arrière, ou sur les flèches vertes pour les cartes adjacentes.


METAR-TAF: